Time;durP1;ratioP1;P1;durP2;ratioP2;P2;SDS_P1;SDS_P2;PMS_P1;PMS_P2;Temp;Humidity;BMP_temperature;BMP_pressure;BME280_temperature;BME280_humidity;BME280_pressure;Samples;Min_cycle;Max_cycle;Signal;HPM_P1;HPM_P2
2023/01/22 00:01:21;;;;;;;13.07;7.88;;;;;;;;;;5093033;28;20091;-56
2023/01/22 00:03:47;;;;;;;13.30;7.23;;;;;;;;;;5094754;28;20401;-57
2023/01/22 00:06:13;;;;;;;14.13;8.53;;;;;;;;;;5093334;28;20028;-58
2023/01/22 00:08:39;;;;;;;16.40;8.30;;;;;;;;;;5091835;28;20020;-56
2023/01/22 00:11:04;;;;;;;18.77;8.90;;;;;;;;;;5092873;28;20020;-59
2023/01/22 00:13:30;;;;;;;15.50;8.30;;;;;;;;;;5094310;28;20020;-63
2023/01/22 00:15:56;;;;;;;17.20;8.60;;;;;;;;;;5095375;28;20058;-58
2023/01/22 00:18:21;;;;;;;18.33;10.00;;;;;;;;;;5095080;28;20519;-56
2023/01/22 00:20:48;;;;;;;18.43;8.80;;;;;;;;;;5095500;28;20024;-58
2023/01/22 00:23:13;;;;;;;21.37;9.93;;;;;;;;;;5093037;28;20020;-56
2023/01/22 00:25:39;;;;;;;18.57;10.07;;;;;;;;;;5091522;28;20023;-57
2023/01/22 00:28:04;;;;;;;17.37;9.83;;;;;;;;;;5091368;28;20023;-58
2023/01/22 00:30:30;;;;;;;21.80;10.73;;;;;;;;;;5093414;28;20533;-59
2023/01/22 00:32:55;;;;;;;17.50;9.83;;;;;;;;;;5093520;28;20016;-58
2023/01/22 00:35:21;;;;;;;23.77;11.03;;;;;;;;;;5093781;28;20100;-58
2023/01/22 00:37:47;;;;;;;18.47;9.70;;;;;;;;;;5093916;28;20059;-57
2023/01/22 00:40:13;;;;;;;19.07;10.10;;;;;;;;;;5093241;28;20500;-58
2023/01/22 00:42:38;;;;;;;17.13;9.40;;;;;;;;;;5094749;28;20094;-56
2023/01/22 00:45:04;;;;;;;20.07;11.70;;;;;;;;;;5096643;28;20091;-63
2023/01/22 00:47:29;;;;;;;20.07;10.97;;;;;;;;;;5094855;28;20369;-57
2023/01/22 00:49:55;;;;;;;17.80;10.37;;;;;;;;;;5096022;28;20028;-61
2023/01/22 00:52:20;;;;;;;19.93;10.63;;;;;;;;;;5096428;28;20016;-58
2023/01/22 00:54:46;;;;;;;19.40;9.57;;;;;;;;;;5094670;28;20012;-57
2023/01/22 00:57:11;;;;;;;17.47;9.93;;;;;;;;;;5094564;28;20047;-56
2023/01/22 00:59:37;;;;;;;23.73;10.97;;;;;;;;;;5094878;28;20048;-58
2023/01/22 01:02:02;;;;;;;18.60;10.33;;;;;;;;;;5095944;28;20020;-56
2023/01/22 01:04:28;;;;;;;18.30;10.13;;;;;;;;;;5094296;28;20059;-57
2023/01/22 01:06:53;;;;;;;17.03;8.83;;;;;;;;;;5094579;28;20426;-58
2023/01/22 01:09:19;;;;;;;16.83;8.30;;;;;;;;;;5095623;28;20070;-57
2023/01/22 01:11:45;;;;;;;17.40;8.97;;;;;;;;;;5096671;28;20023;-61
2023/01/22 01:14:11;;;;;;;15.80;9.60;;;;;;;;;;5097356;28;20345;-58
2023/01/22 01:16:37;;;;;;;18.55;9.00;;;;;;;;;;5096789;28;20020;-57
2023/01/22 01:19:08;;;;;;;19.33;9.17;;;;;;;;;;5096466;28;20481;-57
2023/01/22 01:21:35;;;;;;;15.17;9.03;;;;;;;;;;5096228;28;20062;-56
2023/01/22 01:24:00;;;;;;;17.80;8.47;;;;;;;;;;5095650;28;20087;-57
2023/01/22 01:26:26;;;;;;;16.60;8.50;;;;;;;;;;5094098;28;20455;-59
2023/01/22 01:28:51;;;;;;;16.23;8.70;;;;;;;;;;5095730;28;20012;-57
2023/01/22 01:31:17;;;;;;;19.73;8.67;;;;;;;;;;5095080;28;20039;-57
2023/01/22 01:33:43;;;;;;;18.40;9.93;;;;;;;;;;5095472;28;20016;-57
2023/01/22 01:36:13;;;;;;;16.23;9.10;;;;;;;;;;5095332;28;20123;-58
2023/01/22 01:38:39;;;;;;;14.70;7.77;;;;;;;;;;5095282;28;20484;-57
2023/01/22 01:41:05;;;;;;;16.87;8.63;;;;;;;;;;5093872;28;20186;-57
2023/01/22 01:43:30;;;;;;;15.23;8.40;;;;;;;;;;5095733;28;20012;-58
2023/01/22 01:45:56;;;;;;;17.67;9.50;;;;;;;;;;5094795;28;20027;-60
2023/01/22 01:48:39;;;;;;;19.13;9.50;;;;;;;;;;5095829;28;20025;-58
2023/01/22 01:51:14;;;;;;;18.93;9.30;;;;;;;;;;5097091;28;20034;-58
2023/01/22 01:53:40;;;;;;;19.58;10.25;;;;;;;;;;5097181;28;20063;-68
2023/01/22 01:56:09;;;;;;;17.73;10.10;;;;;;;;;;5098223;28;20150;-57
2023/01/22 01:58:35;;;;;;;20.13;10.40;;;;;;;;;;5097586;28;20032;-62
2023/01/22 02:01:05;;;;;;;20.93;10.43;;;;;;;;;;5095180;28;20020;-56
2023/01/22 02:03:30;;;;;;;16.30;9.57;;;;;;;;;;5095252;28;20048;-58
2023/01/22 02:05:55;;;;;;;20.13;10.50;;;;;;;;;;5094800;28;20526;-57
2023/01/22 02:08:21;;;;;;;19.80;9.90;;;;;;;;;;5093606;28;20030;-57
2023/01/22 02:10:46;;;;;;;21.90;10.77;;;;;;;;;;5093847;28;20028;-56
2023/01/22 02:13:16;;;;;;;16.53;9.17;;;;;;;;;;5093543;28;20429;-56
2023/01/22 02:15:42;;;;;;;20.97;10.30;;;;;;;;;;5094379;28;20027;-57
2023/01/22 02:18:07;;;;;;;18.13;9.40;;;;;;;;;;5093105;28;20020;-58
2023/01/22 02:20:34;;;;;;;19.97;11.17;;;;;;;;;;5094210;28;20035;-57
2023/01/22 02:23:00;;;;;;;17.40;9.23;;;;;;;;;;5094514;28;20016;-58
2023/01/22 02:25:25;;;;;;;17.40;9.93;;;;;;;;;;5094664;28;20016;-58
2023/01/22 02:27:52;;;;;;;21.00;10.63;;;;;;;;;;5095266;28;20461;-57
2023/01/22 02:30:17;;;;;;;20.60;10.67;;;;;;;;;;5094299;28;20042;-58
2023/01/22 02:32:44;;;;;;;19.33;10.67;;;;;;;;;;5093210;28;20103;-57
2023/01/22 02:35:09;;;;;;;19.80;10.03;;;;;;;;;;5093726;28;20027;-57
2023/01/22 02:37:34;;;;;;;22.37;11.13;;;;;;;;;;5093045;28;20107;-57
2023/01/22 02:40:00;;;;;;;19.63;10.03;;;;;;;;;;5094201;28;20016;-57
2023/01/22 02:42:26;;;;;;;21.90;11.43;;;;;;;;;;5094470;28;20052;-57
2023/01/22 02:44:53;;;;;;;20.83;11.40;;;;;;;;;;5094315;28;20444;-57
2023/01/22 02:47:19;;;;;;;18.43;10.57;;;;;;;;;;5092942;28;20033;-60
2023/01/22 02:49:44;;;;;;;19.13;10.30;;;;;;;;;;5095882;28;20024;-57
2023/01/22 02:52:10;;;;;;;18.60;9.93;;;;;;;;;;5094035;28;20469;-59
2023/01/22 02:54:35;;;;;;;15.47;8.47;;;;;;;;;;5092762;28;20012;-60
2023/01/22 02:57:00;;;;;;;13.23;7.30;;;;;;;;;;5092785;28;20023;-61
2023/01/22 02:59:27;;;;;;;17.77;8.50;;;;;;;;;;5095956;28;20376;-56
2023/01/22 03:01:53;;;;;;;15.37;9.00;;;;;;;;;;5095996;28;20495;-66
2023/01/22 03:04:18;;;;;;;17.10;8.23;;;;;;;;;;5097690;28;20046;-59
2023/01/22 03:06:44;;;;;;;17.33;8.93;;;;;;;;;;5096726;28;20016;-57
2023/01/22 03:09:14;;;;;;;15.73;8.83;;;;;;;;;;5095568;28;20426;-62
2023/01/22 03:11:40;;;;;;;16.37;8.97;;;;;;;;;;5096877;28;20077;-58
2023/01/22 03:22:18;;;;;;;14.03;7.73;;;;;;;;;;5095202;28;20022;-64
2023/01/22 03:24:49;;;;;;;16.20;8.40;;;;;;;;;;5095066;28;20099;-58
2023/01/22 03:27:14;;;;;;;14.13;8.13;;;;;;;;;;5094287;28;20024;-57
2023/01/22 03:29:40;;;;;;;13.67;7.60;;;;;;;;;;5094014;28;20556;-59
2023/01/22 03:32:05;;;;;;;16.53;9.23;;;;;;;;;;5094853;28;20015;-57
2023/01/22 03:34:31;;;;;;;15.23;7.67;;;;;;;;;;5093658;28;20012;-63
2023/01/22 03:36:56;;;;;;;15.73;8.00;;;;;;;;;;5095035;28;20020;-60
2023/01/22 03:39:22;;;;;;;18.10;9.97;;;;;;;;;;5092572;28;20023;-57
2023/01/22 03:41:47;;;;;;;19.10;8.90;;;;;;;;;;5095232;28;20016;-60
2023/01/22 03:44:13;;;;;;;19.33;9.70;;;;;;;;;;5093883;28;20023;-57
2023/01/22 03:46:39;;;;;;;15.70;8.30;;;;;;;;;;5092908;28;20419;-58
2023/01/22 03:49:04;;;;;;;19.30;9.90;;;;;;;;;;5092791;28;20024;-56
2023/01/22 03:51:30;;;;;;;18.07;9.23;;;;;;;;;;5092702;28;20073;-56
2023/01/22 03:53:57;;;;;;;18.07;9.20;;;;;;;;;;5091983;28;20028;-58
2023/01/22 03:56:22;;;;;;;16.67;7.73;;;;;;;;;;5091749;28;20107;-57
2023/01/22 03:58:48;;;;;;;19.70;9.60;;;;;;;;;;5092977;28;20058;-58
2023/01/22 04:01:15;;;;;;;16.27;7.73;;;;;;;;;;5091783;28;20031;-56
2023/01/22 04:03:41;;;;;;;14.50;8.50;;;;;;;;;;5091337;28;20052;-58
2023/01/22 04:06:08;;;;;;;18.53;9.97;;;;;;;;;;5091703;28;20431;-58
2023/01/22 04:08:34;;;;;;;18.53;9.97;;;;;;;;;;5091785;28;20107;-57
2023/01/22 04:11:00;;;;;;;16.37;9.77;;;;;;;;;;5092805;28;20043;-57
2023/01/22 04:13:26;;;;;;;17.80;9.27;;;;;;;;;;5092896;28;20046;-57
2023/01/22 04:15:52;;;;;;;17.57;8.83;;;;;;;;;;5092696;28;20461;-57
2023/01/22 04:18:17;;;;;;;19.03;10.27;;;;;;;;;;5096148;28;20038;-58
2023/01/22 04:20:44;;;;;;;18.10;8.73;;;;;;;;;;5096552;28;20023;-56
2023/01/22 04:23:10;;;;;;;18.23;9.67;;;;;;;;;;5095133;28;20380;-57
2023/01/22 04:25:35;;;;;;;13.47;7.90;;;;;;;;;;5095447;28;20031;-56
2023/01/22 04:28:01;;;;;;;14.77;8.60;;;;;;;;;;5097403;28;20426;-59
2023/01/22 04:30:27;;;;;;;18.10;9.33;;;;;;;;;;5099339;28;20032;-67
2023/01/22 04:32:53;;;;;;;16.20;8.33;;;;;;;;;;5097703;28;20474;-57
2023/01/22 04:35:18;;;;;;;15.03;8.33;;;;;;;;;;5096697;28;20090;-57
2023/01/22 04:37:44;;;;;;;18.63;9.07;;;;;;;;;;5095101;28;20473;-58
2023/01/22 04:40:10;;;;;;;15.70;7.67;;;;;;;;;;5096253;28;20023;-57
2023/01/22 04:42:36;;;;;;;14.70;7.23;;;;;;;;;;5095089;28;20032;-57
2023/01/22 04:45:01;;;;;;;13.93;7.43;;;;;;;;;;5094815;28;20012;-56
2023/01/22 04:47:27;;;;;;;15.57;8.30;;;;;;;;;;5094989;28;20472;-57
2023/01/22 04:49:52;;;;;;;12.20;6.70;;;;;;;;;;5095316;28;20511;-56
2023/01/22 04:52:19;;;;;;;13.07;7.30;;;;;;;;;;5096165;28;20495;-56
2023/01/22 04:54:44;;;;;;;12.50;6.50;;;;;;;;;;5094660;28;20396;-56
2023/01/22 04:57:10;;;;;;;15.37;8.13;;;;;;;;;;5096047;28;20024;-56
2023/01/22 04:59:35;;;;;;;15.13;7.07;;;;;;;;;;5096481;28;20016;-56
2023/01/22 05:02:01;;;;;;;15.73;7.70;;;;;;;;;;5096117;28;20016;-57
2023/01/22 05:04:27;;;;;;;13.23;6.97;;;;;;;;;;5095993;28;20044;-56
2023/01/22 05:06:53;;;;;;;15.97;8.10;;;;;;;;;;5094827;28;20021;-57
2023/01/22 05:09:18;;;;;;;17.53;7.77;;;;;;;;;;5095398;28;20016;-56
2023/01/22 05:11:44;;;;;;;15.43;8.47;;;;;;;;;;5094245;28;20036;-56
2023/01/22 05:14:09;;;;;;;14.70;8.03;;;;;;;;;;5094325;28;20024;-57
2023/01/22 05:16:35;;;;;;;14.67;7.83;;;;;;;;;;5096023;28;20022;-57
2023/01/22 05:19:00;;;;;;;16.13;8.60;;;;;;;;;;5094142;28;20020;-58
2023/01/22 05:21:25;;;;;;;18.97;8.90;;;;;;;;;;5095889;28;20090;-58
2023/01/22 05:23:51;;;;;;;11.87;5.27;;;;;;;;;;5095610;28;20031;-56
2023/01/22 05:26:16;;;;;;;16.37;8.47;;;;;;;;;;5094286;28;20020;-58
2023/01/22 05:28:42;;;;;;;18.83;7.70;;;;;;;;;;5093261;28;20023;-56
2023/01/22 05:31:07;;;;;;;22.83;8.17;;;;;;;;;;5097098;28;20686;-58
2023/01/22 05:33:35;;;;;;;16.40;8.63;;;;;;;;;;5097259;28;20023;-58
2023/01/22 05:36:01;;;;;;;18.10;7.90;;;;;;;;;;5097058;28;20020;-57
2023/01/22 05:38:28;;;;;;;22.93;9.73;;;;;;;;;;5095530;28;20533;-59
2023/01/22 05:40:53;;;;;;;25.97;7.87;;;;;;;;;;5095625;28;20012;-56
2023/01/22 05:43:19;;;;;;;18.97;8.90;;;;;;;;;;5094030;28;20487;-56
2023/01/22 05:45:44;;;;;;;16.00;8.60;;;;;;;;;;5094034;28;20031;-58
2023/01/22 05:48:10;;;;;;;17.93;8.87;;;;;;;;;;5096286;28;20085;-65
2023/01/22 05:50:35;;;;;;;20.03;9.80;;;;;;;;;;5096725;28;20121;-55
2023/01/22 05:53:01;;;;;;;21.87;9.97;;;;;;;;;;5093673;28;20023;-57
2023/01/22 05:55:27;;;;;;;24.30;9.03;;;;;;;;;;5094802;28;20024;-57
2023/01/22 05:57:52;;;;;;;21.67;9.43;;;;;;;;;;5095334;28;20025;-58
2023/01/22 06:00:18;;;;;;;23.33;9.00;;;;;;;;;;5095449;28;20031;-57
2023/01/22 06:02:43;;;;;;;18.50;9.90;;;;;;;;;;5096026;28;20040;-55
2023/01/22 06:05:09;;;;;;;25.30;9.60;;;;;;;;;;5096080;28;20025;-57
2023/01/22 06:07:34;;;;;;;17.90;8.73;;;;;;;;;;5095704;28;20016;-55
2023/01/22 06:09:59;;;;;;;19.03;8.93;;;;;;;;;;5095055;28;20464;-56
2023/01/22 06:12:26;;;;;;;23.87;10.77;;;;;;;;;;5093617;28;20448;-56
2023/01/22 06:14:54;;;;;;;19.47;10.10;;;;;;;;;;5095075;28;20028;-57
2023/01/22 06:17:20;;;;;;;18.97;9.80;;;;;;;;;;5094802;28;20016;-57
2023/01/22 06:19:45;;;;;;;18.20;9.70;;;;;;;;;;5093613;28;20419;-57
2023/01/22 06:22:11;;;;;;;20.37;9.70;;;;;;;;;;5094514;28;20517;-57
2023/01/22 06:24:36;;;;;;;22.97;10.17;;;;;;;;;;5093338;28;20020;-57
2023/01/22 06:27:03;;;;;;;21.57;10.00;;;;;;;;;;5093226;28;20085;-57
2023/01/22 06:29:28;;;;;;;24.93;10.67;;;;;;;;;;5093175;28;20022;-69
2023/01/22 06:31:55;;;;;;;21.20;10.00;;;;;;;;;;5094336;28;20107;-57
2023/01/22 06:34:21;;;;;;;25.10;10.77;;;;;;;;;;5096896;28;20537;-61
2023/01/22 06:36:46;;;;;;;66.93;14.30;;;;;;;;;;5097249;28;20016;-59
2023/01/22 06:39:13;;;;;;;20.30;8.90;;;;;;;;;;5095103;28;20020;-58
2023/01/22 06:41:38;;;;;;;24.70;11.90;;;;;;;;;;5094497;28;20098;-57
2023/01/22 06:44:04;;;;;;;24.13;12.37;;;;;;;;;;5094353;28;20043;-60
2023/01/22 06:46:29;;;;;;;23.90;11.07;;;;;;;;;;5092784;28;20031;-56
2023/01/22 06:48:55;;;;;;;22.97;11.43;;;;;;;;;;5094024;28;20086;-56
2023/01/22 06:51:20;;;;;;;23.60;11.67;;;;;;;;;;5093653;28;20024;-57
2023/01/22 06:53:47;;;;;;;24.80;10.60;;;;;;;;;;5092502;28;20016;-56
2023/01/22 06:56:13;;;;;;;20.60;9.87;;;;;;;;;;5092826;28;20061;-54
2023/01/22 06:58:39;;;;;;;21.50;10.77;;;;;;;;;;5095253;28;20012;-57
2023/01/22 07:01:04;;;;;;;27.50;10.77;;;;;;;;;;5095815;28;20092;-57
2023/01/22 07:03:32;;;;;;;18.47;9.83;;;;;;;;;;5094791;28;20048;-58
2023/01/22 07:05:59;;;;;;;25.77;12.20;;;;;;;;;;5096333;28;20040;-60
2023/01/22 07:08:24;;;;;;;23.37;10.20;;;;;;;;;;5096574;28;20024;-56
2023/01/22 07:10:50;;;;;;;20.70;10.37;;;;;;;;;;5095169;28;20040;-65
2023/01/22 07:13:15;;;;;;;21.00;10.27;;;;;;;;;;5094936;28;20286;-57
2023/01/22 07:15:41;;;;;;;19.10;9.50;;;;;;;;;;5095103;28;20020;-56
2023/01/22 07:18:09;;;;;;;21.67;10.87;;;;;;;;;;5096083;28;20020;-61
2023/01/22 07:20:34;;;;;;;20.93;10.40;;;;;;;;;;5096122;28;20103;-56
2023/01/22 07:23:00;;;;;;;19.10;10.60;;;;;;;;;;5095169;28;20048;-62
2023/01/22 07:25:26;;;;;;;22.67;11.03;;;;;;;;;;5095101;28;20465;-56
2023/01/22 07:27:57;;;;;;;17.83;9.63;;;;;;;;;;5094910;28;20012;-55
2023/01/22 07:30:22;;;;;;;38.27;10.97;;;;;;;;;;5093837;28;20484;-57
2023/01/22 07:32:47;;;;;;;19.80;9.63;;;;;;;;;;5093194;28;20020;-58
2023/01/22 07:35:14;;;;;;;20.37;9.97;;;;;;;;;;5094803;28;20095;-57
2023/01/22 07:37:39;;;;;;;24.00;10.63;;;;;;;;;;5093838;28;20461;-57
2023/01/22 07:40:05;;;;;;;21.30;11.30;;;;;;;;;;5093525;28;20142;-56
2023/01/22 07:42:30;;;;;;;20.07;9.90;;;;;;;;;;5092922;28;20027;-58
2023/01/22 07:44:56;;;;;;;20.50;10.77;;;;;;;;;;5093480;28;20016;-57
2023/01/22 07:47:22;;;;;;;24.10;12.43;;;;;;;;;;5091790;28;20020;-57
2023/01/22 07:49:49;;;;;;;22.17;11.87;;;;;;;;;;5092855;28;20540;-57
2023/01/22 07:52:15;;;;;;;23.23;12.13;;;;;;;;;;5093450;28;20031;-58
2023/01/22 07:54:40;;;;;;;26.53;10.07;;;;;;;;;;5097510;28;20012;-57
2023/01/22 07:57:06;;;;;;;23.17;10.63;;;;;;;;;;5097201;28;20074;-59
2023/01/22 07:59:31;;;;;;;20.20;10.37;;;;;;;;;;5100137;28;20040;-76
2023/01/22 08:01:57;;;;;;;32.87;10.97;;;;;;;;;;5099891;28;20495;-58
2023/01/22 08:04:23;;;;;;;34.33;9.73;;;;;;;;;;5100214;28;20564;-55
2023/01/22 08:06:49;;;;;;;26.97;10.47;;;;;;;;;;5095712;28;20078;-56
2023/01/22 08:09:22;;;;;;;27.00;9.77;;;;;;;;;;5097592;28;20391;-61
2023/01/22 08:11:47;;;;;;;37.40;10.73;;;;;;;;;;5097257;28;20032;-58
2023/01/22 08:14:13;;;;;;;59.83;11.50;;;;;;;;;;5096249;28;20028;-57
2023/01/22 08:16:38;;;;;;;19.70;9.30;;;;;;;;;;5095886;28;20016;-56
2023/01/22 08:19:04;;;;;;;18.70;8.43;;;;;;;;;;5096934;28;20061;-56
2023/01/22 08:21:29;;;;;;;16.87;7.17;;;;;;;;;;5097218;28;20373;-57
2023/01/22 08:23:54;;;;;;;27.07;9.73;;;;;;;;;;5097388;28;20012;-61
2023/01/22 08:26:20;;;;;;;33.37;9.27;;;;;;;;;;5097997;28;20020;-57
2023/01/22 08:28:45;;;;;;;18.50;8.43;;;;;;;;;;5099146;28;20012;-60
2023/01/22 08:31:12;;;;;;;17.57;8.17;;;;;;;;;;5098868;28;20020;-57
2023/01/22 08:33:37;;;;;;;17.53;8.77;;;;;;;;;;5098379;28;20084;-57
2023/01/22 08:36:03;;;;;;;16.97;8.17;;;;;;;;;;5095276;28;20459;-57
2023/01/22 08:38:28;;;;;;;21.27;8.50;;;;;;;;;;5096738;28;20055;-56
2023/01/22 08:40:54;;;;;;;15.80;8.13;;;;;;;;;;5096521;28;20027;-59
2023/01/22 08:43:19;;;;;;;17.53;8.00;;;;;;;;;;5094999;28;20024;-57
2023/01/22 08:45:49;;;;;;;24.43;10.57;;;;;;;;;;5096555;28;20088;-56
2023/01/22 08:48:14;;;;;;;17.03;8.53;;;;;;;;;;5096778;28;20032;-56
2023/01/22 08:50:40;;;;;;;18.20;9.60;;;;;;;;;;5098184;28;20373;-57
2023/01/22 08:53:05;;;;;;;25.40;9.23;;;;;;;;;;5097265;28;20016;-58
2023/01/22 08:55:30;;;;;;;21.20;10.60;;;;;;;;;;5096019;28;20132;-61
2023/01/22 08:57:56;;;;;;;27.43;12.53;;;;;;;;;;5097408;28;20111;-57
2023/01/22 09:00:22;;;;;;;35.47;13.33;;;;;;;;;;5097542;28;20049;-66
2023/01/22 09:02:48;;;;;;;30.00;12.33;;;;;;;;;;5095899;28;20511;-57
2023/01/22 09:05:14;;;;;;;23.17;12.17;;;;;;;;;;5095291;28;20016;-57
2023/01/22 09:07:39;;;;;;;25.30;12.50;;;;;;;;;;5096492;28;20340;-56
2023/01/22 09:10:06;;;;;;;21.00;11.20;;;;;;;;;;5096388;28;20106;-58
2023/01/22 09:12:35;;;;;;;21.77;11.73;;;;;;;;;;5096929;28;20017;-59
2023/01/22 09:15:01;;;;;;;22.73;11.50;;;;;;;;;;5095645;28;20016;-57
2023/01/22 09:17:27;;;;;;;22.80;11.77;;;;;;;;;;5095879;28;20020;-65
2023/01/22 09:19:53;;;;;;;21.83;10.90;;;;;;;;;;5095899;28;20028;-55
2023/01/22 09:22:19;;;;;;;22.00;10.87;;;;;;;;;;5094748;28;20473;-61
2023/01/22 09:24:45;;;;;;;20.60;10.60;;;;;;;;;;5094561;28;20544;-57
2023/01/22 09:27:11;;;;;;;19.30;10.83;;;;;;;;;;5096251;28;20099;-60
2023/01/22 09:29:36;;;;;;;20.23;11.97;;;;;;;;;;5096565;28;20034;-58
2023/01/22 09:32:02;;;;;;;18.00;10.33;;;;;;;;;;5096624;28;20020;-57
2023/01/22 09:34:28;;;;;;;19.03;10.90;;;;;;;;;;5096216;28;20413;-59
2023/01/22 09:36:53;;;;;;;19.80;10.17;;;;;;;;;;5095978;28;20548;-57
2023/01/22 09:39:19;;;;;;;21.17;11.70;;;;;;;;;;5095362;28;20055;-58
2023/01/22 09:41:53;;;;;;;18.90;11.10;;;;;;;;;;5095293;28;20026;-56
2023/01/22 09:44:19;;;;;;;21.65;10.48;;;;;;;;;;5095257;28;20534;-57
2023/01/22 09:46:47;;;;;;;19.90;9.97;;;;;;;;;;5095842;28;20027;-56
2023/01/22 09:49:18;;;;;;;22.60;11.87;;;;;;;;;;5095342;28;20016;-58
2023/01/22 09:51:46;;;;;;;23.30;12.50;;;;;;;;;;5095320;28;20028;-56
2023/01/22 09:54:14;;;;;;;21.20;11.83;;;;;;;;;;5094922;28;20480;-56
2023/01/22 09:56:41;;;;;;;23.23;12.67;;;;;;;;;;5095499;28;20046;-66
2023/01/22 09:59:12;;;;;;;25.93;14.50;;;;;;;;;;5095400;28;20066;-58
2023/01/22 10:01:37;;;;;;;23.63;12.50;;;;;;;;;;5095234;28;20039;-57
2023/01/22 10:04:06;;;;;;;24.03;12.97;;;;;;;;;;5094699;28;20484;-57
2023/01/22 10:06:32;;;;;;;22.77;12.13;;;;;;;;;;5095065;28;20023;-57
2023/01/22 10:09:11;;;;;;;22.03;12.43;;;;;;;;;;5093212;28;20024;-57
2023/01/22 10:11:37;;;;;;;21.93;12.27;;;;;;;;;;5093686;28;20035;-57
2023/01/22 10:14:05;;;;;;;23.67;12.10;;;;;;;;;;5095743;28;20020;-56
2023/01/22 10:16:31;;;;;;;22.63;11.03;;;;;;;;;;5095037;28;20465;-58
2023/01/22 10:18:56;;;;;;;21.10;11.43;;;;;;;;;;5095110;28;20034;-57
2023/01/22 10:21:22;;;;;;;19.70;10.77;;;;;;;;;;5093773;28;20028;-56
2023/01/22 10:23:49;;;;;;;22.50;11.30;;;;;;;;;;5093768;28;20062;-57
2023/01/22 10:26:34;;;;;;;21.13;11.10;;;;;;;;;;5096698;28;20379;-56
2023/01/22 10:29:03;;;;;;;22.63;10.02;;;;;;;;;;5096235;28;20485;-62
2023/01/22 10:31:33;;;;;;;22.33;11.50;;;;;;;;;;5096947;28;20081;-59
2023/01/22 10:34:00;;;;;;;24.37;12.80;;;;;;;;;;5095202;28;20020;-63
2023/01/22 10:36:27;;;;;;;23.90;12.37;;;;;;;;;;5097276;28;20063;-57
2023/01/22 10:39:21;;;;;;;24.83;12.00;;;;;;;;;;5097052;28;20060;-60
2023/01/22 10:41:48;;;;;;;20.13;11.40;;;;;;;;;;5076710;28;20065;-58
2023/01/22 10:44:18;;;;;;;22.17;12.23;;;;;;;;;;5095339;28;20563;-60
2023/01/22 10:46:45;;;;;;;27.10;11.83;;;;;;;;;;5095075;28;20020;-57
2023/01/22 10:49:13;;;;;;;20.00;10.93;;;;;;;;;;5094962;28;20473;-56
2023/01/22 10:51:39;;;;;;;20.77;11.30;;;;;;;;;;5093827;28;20388;-59
2023/01/22 10:54:17;;;;;;;21.10;10.17;;;;;;;;;;5093182;28;20024;-58
2023/01/22 10:56:43;;;;;;;20.07;10.80;;;;;;;;;;5097031;28;20020;-58
2023/01/22 10:59:17;;;;;;;16.97;9.93;;;;;;;;;;5096260;28;20035;-57
2023/01/22 11:01:43;;;;;;;17.77;9.90;;;;;;;;;;5096281;28;20028;-58
2023/01/22 11:04:12;;;;;;;18.07;10.77;;;;;;;;;;5095073;28;20106;-59
2023/01/22 11:06:44;;;;;;;16.40;9.17;;;;;;;;;;5094751;28;20091;-58
2023/01/22 11:09:28;;;;;;;17.13;9.33;;;;;;;;;;5092786;28;20051;-58
2023/01/22 11:12:05;;;;;;;14.80;8.87;;;;;;;;;;5092865;28;20028;-59
2023/01/22 11:14:35;;;;;;;12.90;7.73;;;;;;;;;;5093725;28;20099;-59
2023/01/22 11:17:21;;;;;;;11.13;6.90;;;;;;;;;;5094156;28;20629;-57
2023/01/22 11:20:09;;;;;;;10.35;6.28;;;;;;;;;;5093460;28;20073;-58
2023/01/22 11:22:37;;;;;;;12.33;7.40;;;;;;;;;;5091556;28;20490;-57
2023/01/22 11:25:02;;;;;;;10.00;6.30;;;;;;;;;;5093242;28;20015;-58
2023/01/22 11:27:57;;;;;;;12.33;6.77;;;;;;;;;;5093144;28;20548;-58
2023/01/22 11:30:52;;;;;;;12.40;7.27;;;;;;;;;;5080185;28;20044;-59
2023/01/22 11:33:24;;;;;;;9.07;5.93;;;;;;;;;;5079227;28;20036;-58
2023/01/22 11:35:56;;;;;;;11.40;6.53;;;;;;;;;;5091778;28;20423;-60
2023/01/22 11:38:33;;;;;;;13.73;8.37;;;;;;;;;;5093497;28;20068;-58
2023/01/22 11:41:07;;;;;;;11.10;6.67;;;;;;;;;;5092804;28;20016;-57
2023/01/22 11:43:32;;;;;;;12.05;6.90;;;;;;;;;;5092234;28;20178;-60
2023/01/22 11:46:08;;;;;;;9.53;5.37;;;;;;;;;;5092709;28;20495;-57
2023/01/22 11:48:50;;;;;;;9.17;6.10;;;;;;;;;;5094016;28;20020;-57
2023/01/22 11:51:21;;;;;;;11.27;7.18;;;;;;;;;;5095301;28;20028;-58
2023/01/22 11:54:19;;;;;;;9.50;5.57;;;;;;;;;;5093869;28;20020;-61
2023/01/22 11:56:53;;;;;;;10.03;5.67;;;;;;;;;;5059686;28;20036;-58
2023/01/22 11:59:38;;;;;;;9.40;5.67;;;;;;;;;;5092623;28;20047;-56
2023/01/22 12:02:03;;;;;;;8.70;5.80;;;;;;;;;;5093316;28;20032;-58
2023/01/22 12:04:51;;;;;;;8.50;5.23;;;;;;;;;;5091502;28;20054;-58
2023/01/22 12:07:28;;;;;;;8.67;5.20;;;;;;;;;;5091826;28;20024;-56
2023/01/22 12:09:57;;;;;;;10.10;6.10;;;;;;;;;;5091493;28;20048;-57
2023/01/22 12:12:34;;;;;;;8.87;5.27;;;;;;;;;;5091849;28;20016;-59
2023/01/22 12:15:08;;;;;;;7.40;5.00;;;;;;;;;;5092497;28;20024;-56
2023/01/22 12:17:42;;;;;;;9.20;5.57;;;;;;;;;;5092985;28;20016;-57
2023/01/22 12:20:27;;;;;;;8.68;5.30;;;;;;;;;;5091623;28;20026;-58
2023/01/22 12:23:08;;;;;;;9.00;5.47;;;;;;;;;;5092134;28;20070;-59
2023/01/22 12:25:40;;;;;;;9.50;5.47;;;;;;;;;;5093413;28;20016;-60
2023/01/22 12:28:21;;;;;;;8.60;5.07;;;;;;;;;;5091739;28;20024;-59
2023/01/22 12:31:05;;;;;;;10.43;5.70;;;;;;;;;;5091434;28;20401;-58
2023/01/22 12:33:33;;;;;;;10.50;6.13;;;;;;;;;;5091536;28;20024;-62
2023/01/22 12:36:01;;;;;;;11.33;6.67;;;;;;;;;;5093491;28;20112;-57
2023/01/22 12:38:26;;;;;;;9.60;5.87;;;;;;;;;;5092825;28;20074;-58
2023/01/22 12:40:58;;;;;;;8.17;4.80;;;;;;;;;;5095929;28;20024;-58
2023/01/22 12:43:44;;;;;;;8.63;4.00;;;;;;;;;;5097530;28;20016;-58
2023/01/22 12:46:20;;;;;;;5.60;2.90;;;;;;;;;;5082139;28;20123;-57
2023/01/22 12:48:46;;;;;;;8.87;5.03;;;;;;;;;;5097686;28;20091;-59
2023/01/22 12:51:30;;;;;;;7.80;4.30;;;;;;;;;;5097688;28;20032;-63
2023/01/22 12:54:06;;;;;;;8.13;4.90;;;;;;;;;;5098475;28;20020;-60
2023/01/22 12:56:31;;;;;;;;;;;;;;;;;;5101263;28;20073;-61
2023/01/22 12:58:57;;;;;;;7.53;4.53;;;;;;;;;;5097710;28;19904;-60
2023/01/22 13:01:23;;;;;;;8.60;3.73;;;;;;;;;;5096334;28;20388;-58
2023/01/22 13:03:57;;;;;;;7.57;3.90;;;;;;;;;;5096147;28;20074;-56
2023/01/22 13:06:29;;;;;;;9.63;4.97;;;;;;;;;;5096478;28;20069;-57
2023/01/22 13:08:54;;;;;;;8.97;4.97;;;;;;;;;;5096759;28;20107;-58
2023/01/22 13:11:28;;;;;;;11.30;5.47;;;;;;;;;;5096249;28;20115;-58
2023/01/22 13:13:56;;;;;;;9.43;4.83;;;;;;;;;;5096229;28;20097;-59
2023/01/22 13:16:26;;;;;;;9.27;5.37;;;;;;;;;;5096728;28;20050;-65
2023/01/22 13:18:53;;;;;;;10.70;5.07;;;;;;;;;;5097534;28;20024;-56
2023/01/22 13:21:32;;;;;;;7.67;4.77;;;;;;;;;;5098689;28;20012;-57
2023/01/22 13:24:05;;;;;;;12.47;5.90;;;;;;;;;;5098272;28;20049;-62
2023/01/22 13:26:34;;;;;;;8.07;4.67;;;;;;;;;;5099591;28;20047;-60
2023/01/22 13:29:21;;;;;;;9.00;5.00;;;;;;;;;;5096639;28;20035;-58
2023/01/22 13:32:09;;;;;;;7.47;5.00;;;;;;;;;;5098073;28;20553;-58
2023/01/22 13:34:34;;;;;;;7.47;4.73;;;;;;;;;;5097597;28;20062;-59
2023/01/22 13:37:00;;;;;;;10.07;5.70;;;;;;;;;;5095348;28;20024;-57
2023/01/22 13:39:27;;;;;;;9.57;5.73;;;;;;;;;;5094890;28;20428;-59
2023/01/22 13:41:53;;;;;;;10.10;5.20;;;;;;;;;;5095791;28;20023;-60
2023/01/22 13:44:20;;;;;;;8.67;4.63;;;;;;;;;;5094876;28;20032;-58
2023/01/22 13:46:46;;;;;;;11.10;6.30;;;;;;;;;;5095817;28;20095;-58
2023/01/22 13:49:18;;;;;;;12.27;7.27;;;;;;;;;;5094079;28;20468;-57
2023/01/22 13:51:44;;;;;;;10.67;5.47;;;;;;;;;;5093387;28;20492;-56
2023/01/22 13:54:15;;;;;;;9.93;5.70;;;;;;;;;;5093476;28;20016;-55
2023/01/22 13:56:41;;;;;;;10.70;6.03;;;;;;;;;;5094481;28;20024;-59
2023/01/22 13:59:15;;;;;;;9.20;5.37;;;;;;;;;;5093227;28;20031;-57
2023/01/22 14:01:41;;;;;;;11.15;5.65;;;;;;;;;;5094013;28;20028;-58
2023/01/22 14:04:23;;;;;;;10.37;6.07;;;;;;;;;;5095113;28;20464;-57
2023/01/22 14:06:50;;;;;;;10.60;6.20;;;;;;;;;;5093481;28;20023;-59
2023/01/22 14:09:27;;;;;;;11.27;6.60;;;;;;;;;;5093648;28;20050;-58
2023/01/22 14:11:52;;;;;;;11.33;6.90;;;;;;;;;;5093598;28;20506;-57
2023/01/22 14:14:19;;;;;;;10.30;5.90;;;;;;;;;;5094106;28;20159;-58
2023/01/22 14:16:45;;;;;;;11.93;5.33;;;;;;;;;;5093215;28;20480;-58
2023/01/22 14:19:12;;;;;;;7.10;4.07;;;;;;;;;;5093048;28;20039;-57
2023/01/22 14:21:39;;;;;;;6.90;3.47;;;;;;;;;;5093231;28;20047;-60
2023/01/22 14:24:04;;;;;;;9.70;5.53;;;;;;;;;;5094439;28;20024;-58
2023/01/22 14:26:30;;;;;;;10.73;4.80;;;;;;;;;;5093184;28;20114;-57
2023/01/22 14:28:55;;;;;;;9.70;5.50;;;;;;;;;;5095378;28;20022;-60
2023/01/22 14:31:21;;;;;;;8.30;4.87;;;;;;;;;;5094129;28;20537;-59
2023/01/22 14:33:46;;;;;;;7.63;4.53;;;;;;;;;;5094406;28;20065;-58
2023/01/22 14:36:12;;;;;;;9.97;4.90;;;;;;;;;;5093874;28;20019;-57
2023/01/22 14:38:37;;;;;;;8.37;4.70;;;;;;;;;;5094152;28;20039;-58
2023/01/22 14:41:03;;;;;;;7.80;4.13;;;;;;;;;;5093801;28;20012;-58